• Join FlightAware (Why Join?)
  • Login
  • US Flag 
11:15PM EDT


 

Airport Tracker/Info


-or-


 

Live Flight TrackerFlight Track Log ✈ N76AD ✈ 08-Aug-2014 ✈ KCDW - KFRG

Flight Track Log - Related Links

Times and Time Zones

All times are in EDT time to prevent confusion due to time zone crossing. See the N76AD flight status page for this flight to view local times or setup timezone preferences in your user account.

Time Position Orientation Groundspeed Altitude Reporting Facility
EDT Latitude Longitude Course Direction KTS MPH feet Rate Location/Type
05:54PM 40.9000 -74.2500 21° North 87 100 1,900  Level New York TRACON
05:55PM 40.9333 -74.2333 21° North 83 96 2,700 720 Climbing New York TRACON
05:56PM 40.9500 -74.2333 360° North 77 89 3,400 720 Climbing New York TRACON
05:57PM 40.9667 -74.2167 37° Northeast 81 93 4,200 780 Climbing New York TRACON
05:58PM 40.9833 -74.2000 37° Northeast 83 96 5,000 780 Climbing New York TRACON
05:59PM 41.0167 -74.2000 360° North 83 96 5,800 540 Climbing New York TRACON
06:00PM 41.0830 -74.1668 21° North  Level FlightAware Approximate
06:00PM 41.0333 -74.1833 37° Northeast 99 114 6,100  Level New York TRACON
06:01PM 41.0667 -74.1833 360° North 107 123 6,100 -60 Level New York TRACON
06:02PM 41.1000 -74.1667 21° North 109 125 6,000 -240 Descending New York TRACON
06:03PM 41.1167 -74.1500 37° Northeast 108 124 5,700 -360 Descending New York TRACON
06:04PM 41.1500 -74.1333 21° North 110 127 5,300 -300 Descending New York TRACON
06:05PM 41.1667 -74.1167 37° Northeast 111 128 5,100 -120 Descending New York TRACON
06:06PM 41.1667 -74.0667 90° East 120 138 5,100  Level New York TRACON
06:07PM 41.1833 -74.0333 56° Northeast 120 138 5,100  Level New York TRACON
06:08PM 41.1833 -73.9833 90° East 122 140 5,100  Level New York TRACON
06:09PM 41.2000 -73.9500 56° Northeast 123 142 5,100  Level New York TRACON
06:10PM 41.2167 -73.9000 66° East 123 142 5,100  Level New York TRACON
06:11PM 41.2167 -73.8500 90° East 126 145 5,100  Level New York TRACON
06:12PM 41.2333 -73.8167 56° Northeast 124 143 5,100  Level New York TRACON
06:13PM 41.2167 -73.7667 114° Southeast 121 139 5,100  Level New York TRACON
06:14PM 41.2000 -73.7333 124° Southeast 121 139 5,100  Level New York TRACON
06:15PM 41.1833 -73.7000 124° Southeast 123 142 5,100 -120 Level New York TRACON
06:17PM 41.1500 -73.6667 143° Southeast 128 147 4,900 -240 Descending New York TRACON
06:17PM 41.1333 -73.6500 143° Southeast 124 143 4,700 -360 Descending New York TRACON
06:18PM 41.1000 -73.6167 143° Southeast 123 142 4,300 -360 Descending New York TRACON
06:19PM 41.0667 -73.5833 143° Southeast 123 142 4,000 -300 Descending New York TRACON
06:20PM 41.0500 -73.5667 143° Southeast 115 132 3,700 -300 Descending New York TRACON
06:21PM 41.0333 -73.5333 124° Southeast 117 135 3,400 -300 Descending New York TRACON
06:22PM 41.0000 -73.5167 159° South 118 136 3,100 -240 Descending New York TRACON
06:23PM 40.9667 -73.4833 143° Southeast 120 138 3,000 -240 Descending New York TRACON
06:24PM 40.9500 -73.4500 123° Southeast 115 132 2,700 -300 Descending New York TRACON
06:25PM 40.9167 -73.4333 159° South 117 135 2,400 -360 Descending New York TRACON
06:26PM 40.9000 -73.4000 123° Southeast 119 137 2,100 -240 Descending New York TRACON
06:27PM 40.8667 -73.3833 159° South 116 133 2,000 -180 Descending New York TRACON
06:28PM 40.8333 -73.3833 180° South 120 138 1,800 -180 Descending New York TRACON
06:29PM 40.8000 -73.3833 180° South 108 124 1,700 -240 Descending New York TRACON
06:30PM 40.7833 -73.3833 180° South 111 128 1,400 -300 Descending New York TRACON
06:31PM 40.7500 -73.4000 201° Southwest 106 122 1,200 -180 Descending New York TRACON
06:32PM 40.7167 -73.4000 180° South 103 119 1,100 -60 Descending New York TRACON
06:33PM 40.6833 -73.4000 180° South 105 121 1,100  Level New York TRACON
06:34PM 40.6833 -73.4000 360° North 98 113 1,200 -180 Climbing New York TRACON
06:35PM 40.7000 -73.4167 323° Northwest 83 96 800 -420 Descending New York TRACON
06:36PM 40.7167 -73.4167 360° North 67 77 400 -420 Descending New York TRACON
06:38PM 40.7288 -73.4134 19° North  Level Estimated
06:45PM 40.7288 -73.4134 20° North  Level Estimated
06:46PM 40.7288 -73.4134 20° North  Level Estimated